Antes Fort, Pennsylvania
Current Conditions -  °F | °C
As of 12:54 PM on Thursday 27 Nov 2014 (Local Time) from KIPT Reporting Station
Broken Clouds Broken Clouds  
Wind Chill: 31°   Ceiling: 3400
Heat Index: 35°   Visibility: 10mi
Dew Point: 25°   Wind: 5mph
Humidity: 67%   Direction: 260°W
Pressure: 30.02"   Gusts: NA
Location:  41.19°N, 77.22°W
Report Text: KIPT 271754Z 26004KT 10SM BKN034 BKN060 02/M04 A3002 RMK AO2 SLP171 T00171039 10017 21006 56007
Loading
Personal Weather Stations






























Interactive Weather Map New forecast layout! Learn more

10-Day Weather Forecast

Advertisements
Track Severe Weather on mobile